Terminal Aerodrome Forecast
Issued by NWS Charleston, WV

Current Version | Previous Version | Text Only | Print | Product List | Glossary Off
Versions: 1 2 3 4 5 6 7 8 9 10 11 12 13 14 15 16 17 18 19 20 21 22 23 24 25 26 27 28 29 30 31 32

510
FTUS41 KRLX 192059 AAC
TAFPKB
TAF AMD
KPKB 192059Z 1921/2018 28014G22KT P6SM SCT030 BKN040 OVC045
     FM200300 27009KT P6SM BKN040
     FM200500 27008KT P6SM SCT035
     FM200700 26007KT P6SM SKC
     FM201400 22006KT P6SM SCT250=

USA.gov is the U.S. government's official web portal to all federal, state and local government web resources and services.